sensor_id;sensor_type;location;lat;lon;timestamp;temperature;humidity
74458;SHT31;62896;51.032;3.712;2023-03-12T00:02:40;5.9;66
74458;SHT31;62896;51.032;3.712;2023-03-12T00:06:01;5.9;66
74458;SHT31;62896;51.032;3.712;2023-03-12T00:09:20;5.9;66
74458;SHT31;62896;51.032;3.712;2023-03-12T00:12:40;5.7;67
74458;SHT31;62896;51.032;3.712;2023-03-12T00:16:02;5.7;67
74458;SHT31;62896;51.032;3.712;2023-03-12T00:19:20;5.7;67
74458;SHT31;62896;51.032;3.712;2023-03-12T00:22:40;5.7;69
74458;SHT31;62896;51.032;3.712;2023-03-12T00:26:00;5.7;69
74458;SHT31;62896;51.032;3.712;2023-03-12T00:29:20;5.7;69
74458;SHT31;62896;51.032;3.712;2023-03-12T00:32:40;5.6;72
74458;SHT31;62896;51.032;3.712;2023-03-12T00:36:00;5.6;72
74458;SHT31;62896;51.032;3.712;2023-03-12T00:39:20;5.6;72
74458;SHT31;62896;51.032;3.712;2023-03-12T00:42:40;5.5;74
74458;SHT31;62896;51.032;3.712;2023-03-12T00:46:00;5.5;74
74458;SHT31;62896;51.032;3.712;2023-03-12T00:49:20;5.5;74
74458;SHT31;62896;51.032;3.712;2023-03-12T00:52:40;5.4;76
74458;SHT31;62896;51.032;3.712;2023-03-12T00:56:00;5.4;76
74458;SHT31;62896;51.032;3.712;2023-03-12T00:59:20;5.4;76
74458;SHT31;62896;51.032;3.712;2023-03-12T01:02:40;5.3;77
74458;SHT31;62896;51.032;3.712;2023-03-12T01:06:00;5.3;77
74458;SHT31;62896;51.032;3.712;2023-03-12T01:09:20;5.3;77
74458;SHT31;62896;51.032;3.712;2023-03-12T01:12:40;5.2;78
74458;SHT31;62896;51.032;3.712;2023-03-12T01:16:00;5.2;78
74458;SHT31;62896;51.032;3.712;2023-03-12T01:19:20;5.2;78
74458;SHT31;62896;51.032;3.712;2023-03-12T01:22:40;5.2;79
74458;SHT31;62896;51.032;3.712;2023-03-12T01:26:00;5.2;79
74458;SHT31;62896;51.032;3.712;2023-03-12T01:29:20;5.2;79
74458;SHT31;62896;51.032;3.712;2023-03-12T01:32:40;5.3;79
74458;SHT31;62896;51.032;3.712;2023-03-12T01:36:00;5.3;79
74458;SHT31;62896;51.032;3.712;2023-03-12T01:39:20;5.3;79
74458;SHT31;62896;51.032;3.712;2023-03-12T01:42:40;5.2;80
74458;SHT31;62896;51.032;3.712;2023-03-12T01:46:02;5.2;80
74458;SHT31;62896;51.032;3.712;2023-03-12T01:49:21;5.2;80
74458;SHT31;62896;51.032;3.712;2023-03-12T01:52:40;5.2;80
74458;SHT31;62896;51.032;3.712;2023-03-12T01:56:00;5.2;80
74458;SHT31;62896;51.032;3.712;2023-03-12T01:59:21;5.2;80
74458;SHT31;62896;51.032;3.712;2023-03-12T02:02:41;5.1;82
74458;SHT31;62896;51.032;3.712;2023-03-12T02:06:01;5.1;82
74458;SHT31;62896;51.032;3.712;2023-03-12T02:09:20;5.1;82
74458;SHT31;62896;51.032;3.712;2023-03-12T02:12:40;4.9;85
74458;SHT31;62896;51.032;3.712;2023-03-12T02:16:00;4.9;85
74458;SHT31;62896;51.032;3.712;2023-03-12T02:19:22;4.9;85
74458;SHT31;62896;51.032;3.712;2023-03-12T02:22:41;4.8;86
74458;SHT31;62896;51.032;3.712;2023-03-12T02:26:00;4.8;86
74458;SHT31;62896;51.032;3.712;2023-03-12T02:29:21;4.8;86
74458;SHT31;62896;51.032;3.712;2023-03-12T02:32:40;4.9;85
74458;SHT31;62896;51.032;3.712;2023-03-12T02:36:00;4.9;85
74458;SHT31;62896;51.032;3.712;2023-03-12T02:39:20;4.9;85
74458;SHT31;62896;51.032;3.712;2023-03-12T02:42:40;5;84
74458;SHT31;62896;51.032;3.712;2023-03-12T02:46:00;5;84
74458;SHT31;62896;51.032;3.712;2023-03-12T02:49:21;5;84
74458;SHT31;62896;51.032;3.712;2023-03-12T02:52:40;5;84
74458;SHT31;62896;51.032;3.712;2023-03-12T02:56:00;5;84
74458;SHT31;62896;51.032;3.712;2023-03-12T02:59:21;5;84
74458;SHT31;62896;51.032;3.712;2023-03-12T03:02:41;5.1;84
74458;SHT31;62896;51.032;3.712;2023-03-12T03:06:00;5.1;84
74458;SHT31;62896;51.032;3.712;2023-03-12T03:09:20;5.1;84
74458;SHT31;62896;51.032;3.712;2023-03-12T03:12:40;5.1;84
74458;SHT31;62896;51.032;3.712;2023-03-12T03:16:00;5.1;84
74458;SHT31;62896;51.032;3.712;2023-03-12T03:19:20;5.1;84
74458;SHT31;62896;51.032;3.712;2023-03-12T03:22:40;5.1;84
74458;SHT31;62896;51.032;3.712;2023-03-12T03:26:00;5.1;84
74458;SHT31;62896;51.032;3.712;2023-03-12T03:29:20;5.1;84
74458;SHT31;62896;51.032;3.712;2023-03-12T03:32:41;5.1;85
74458;SHT31;62896;51.032;3.712;2023-03-12T03:36:00;5.1;85
74458;SHT31;62896;51.032;3.712;2023-03-12T03:39:20;5.1;85
74458;SHT31;62896;51.032;3.712;2023-03-12T03:42:40;5.1;85
74458;SHT31;62896;51.032;3.712;2023-03-12T03:46:01;5.1;85
74458;SHT31;62896;51.032;3.712;2023-03-12T03:49:20;5.1;85
74458;SHT31;62896;51.032;3.712;2023-03-12T03:52:40;5;86
74458;SHT31;62896;51.032;3.712;2023-03-12T03:56:03;5;86
74458;SHT31;62896;51.032;3.712;2023-03-12T03:59:20;5;86
74458;SHT31;62896;51.032;3.712;2023-03-12T04:02:40;5.2;86
74458;SHT31;62896;51.032;3.712;2023-03-12T04:06:01;5.2;86
74458;SHT31;62896;51.032;3.712;2023-03-12T04:09:20;5.2;86
74458;SHT31;62896;51.032;3.712;2023-03-12T04:12:40;5.2;87
74458;SHT31;62896;51.032;3.712;2023-03-12T04:16:00;5.2;87
74458;SHT31;62896;51.032;3.712;2023-03-12T04:19:20;5.2;87
74458;SHT31;62896;51.032;3.712;2023-03-12T04:22:40;5.3;88
74458;SHT31;62896;51.032;3.712;2023-03-12T04:26:00;5.3;88
74458;SHT31;62896;51.032;3.712;2023-03-12T04:29:20;5.3;88
74458;SHT31;62896;51.032;3.712;2023-03-12T04:32:40;5.3;90
74458;SHT31;62896;51.032;3.712;2023-03-12T04:36:00;5.3;90
74458;SHT31;62896;51.032;3.712;2023-03-12T04:39:20;5.3;90
74458;SHT31;62896;51.032;3.712;2023-03-12T04:42:40;5.3;92
74458;SHT31;62896;51.032;3.712;2023-03-12T04:46:01;5.3;92
74458;SHT31;62896;51.032;3.712;2023-03-12T04:49:20;5.3;92
74458;SHT31;62896;51.032;3.712;2023-03-12T04:52:40;5.4;93
74458;SHT31;62896;51.032;3.712;2023-03-12T04:56:01;5.4;93
74458;SHT31;62896;51.032;3.712;2023-03-12T04:59:20;5.4;93
74458;SHT31;62896;51.032;3.712;2023-03-12T05:02:40;5.5;94
74458;SHT31;62896;51.032;3.712;2023-03-12T05:06:00;5.5;94
74458;SHT31;62896;51.032;3.712;2023-03-12T05:09:20;5.5;94
74458;SHT31;62896;51.032;3.712;2023-03-12T05:12:40;5.6;94
74458;SHT31;62896;51.032;3.712;2023-03-12T05:16:00;5.6;94
74458;SHT31;62896;51.032;3.712;2023-03-12T05:19:20;5.6;94
74458;SHT31;62896;51.032;3.712;2023-03-12T05:22:40;5.6;96
74458;SHT31;62896;51.032;3.712;2023-03-12T05:26:01;5.6;96
74458;SHT31;62896;51.032;3.712;2023-03-12T05:29:20;5.6;96
74458;SHT31;62896;51.032;3.712;2023-03-12T05:32:40;5.6;96
74458;SHT31;62896;51.032;3.712;2023-03-12T05:36:00;5.6;96
74458;SHT31;62896;51.032;3.712;2023-03-12T05:39:20;5.6;96
74458;SHT31;62896;51.032;3.712;2023-03-12T05:42:40;5.7;97
74458;SHT31;62896;51.032;3.712;2023-03-12T05:46:04;5.7;97
74458;SHT31;62896;51.032;3.712;2023-03-12T05:49:21;5.7;97
74458;SHT31;62896;51.032;3.712;2023-03-12T05:52:40;5.8;97
74458;SHT31;62896;51.032;3.712;2023-03-12T05:56:01;5.8;97
74458;SHT31;62896;51.032;3.712;2023-03-12T05:59:20;5.8;97
74458;SHT31;62896;51.032;3.712;2023-03-12T06:02:41;6;97
74458;SHT31;62896;51.032;3.712;2023-03-12T06:06:00;6;97
74458;SHT31;62896;51.032;3.712;2023-03-12T06:09:20;6;97
74458;SHT31;62896;51.032;3.712;2023-03-12T06:12:40;6.2;98
74458;SHT31;62896;51.032;3.712;2023-03-12T06:16:01;6.2;98
74458;SHT31;62896;51.032;3.712;2023-03-12T06:19:21;6.2;98
74458;SHT31;62896;51.032;3.712;2023-03-12T06:22:40;6.4;98
74458;SHT31;62896;51.032;3.712;2023-03-12T06:26:00;6.4;98
74458;SHT31;62896;51.032;3.712;2023-03-12T06:29:20;6.4;98
74458;SHT31;62896;51.032;3.712;2023-03-12T06:32:41;6.7;99
74458;SHT31;62896;51.032;3.712;2023-03-12T06:36:01;6.7;99
74458;SHT31;62896;51.032;3.712;2023-03-12T06:39:20;6.7;99
74458;SHT31;62896;51.032;3.712;2023-03-12T06:42:40;6.9;99
74458;SHT31;62896;51.032;3.712;2023-03-12T06:46:01;6.9;99
74458;SHT31;62896;51.032;3.712;2023-03-12T06:49:21;6.9;99
74458;SHT31;62896;51.032;3.712;2023-03-12T06:52:40;7.1;99
74458;SHT31;62896;51.032;3.712;2023-03-12T06:56:01;7.1;99
74458;SHT31;62896;51.032;3.712;2023-03-12T06:59:21;7.1;99
74458;SHT31;62896;51.032;3.712;2023-03-12T07:02:41;7.3;99
74458;SHT31;62896;51.032;3.712;2023-03-12T07:06:01;7.3;99
74458;SHT31;62896;51.032;3.712;2023-03-12T07:09:21;7.3;99
74458;SHT31;62896;51.032;3.712;2023-03-12T07:12:41;7.5;99
74458;SHT31;62896;51.032;3.712;2023-03-12T07:16:01;7.5;99
74458;SHT31;62896;51.032;3.712;2023-03-12T07:19:21;7.5;99
74458;SHT31;62896;51.032;3.712;2023-03-12T07:22:41;7.7;99
74458;SHT31;62896;51.032;3.712;2023-03-12T07:26:02;7.7;99
74458;SHT31;62896;51.032;3.712;2023-03-12T07:29:21;7.7;99
74458;SHT31;62896;51.032;3.712;2023-03-12T07:32:41;8;98
74458;SHT31;62896;51.032;3.712;2023-03-12T07:36:01;8;98
74458;SHT31;62896;51.032;3.712;2023-03-12T07:39:21;8;98
74458;SHT31;62896;51.032;3.712;2023-03-12T07:42:41;8.4;97
74458;SHT31;62896;51.032;3.712;2023-03-12T07:46:01;8.4;97
74458;SHT31;62896;51.032;3.712;2023-03-12T07:49:21;8.4;97
74458;SHT31;62896;51.032;3.712;2023-03-12T07:52:41;8.8;96
74458;SHT31;62896;51.032;3.712;2023-03-12T07:56:01;8.8;96
74458;SHT31;62896;51.032;3.712;2023-03-12T07:59:21;8.8;96
74458;SHT31;62896;51.032;3.712;2023-03-12T08:02:41;9.1;95
74458;SHT31;62896;51.032;3.712;2023-03-12T08:06:02;9.1;95
74458;SHT31;62896;51.032;3.712;2023-03-12T08:09:21;9.1;95
74458;SHT31;62896;51.032;3.712;2023-03-12T08:12:41;9.3;94
74458;SHT31;62896;51.032;3.712;2023-03-12T08:16:01;9.3;94
74458;SHT31;62896;51.032;3.712;2023-03-12T08:19:21;9.3;94
74458;SHT31;62896;51.032;3.712;2023-03-12T08:22:41;9.6;93
74458;SHT31;62896;51.032;3.712;2023-03-12T08:26:01;9.6;93
74458;SHT31;62896;51.032;3.712;2023-03-12T08:29:21;9.6;93
74458;SHT31;62896;51.032;3.712;2023-03-12T08:32:41;9.9;92
74458;SHT31;62896;51.032;3.712;2023-03-12T08:36:01;9.9;92
74458;SHT31;62896;51.032;3.712;2023-03-12T08:39:21;9.9;92
74458;SHT31;62896;51.032;3.712;2023-03-12T08:42:41;10.2;90
74458;SHT31;62896;51.032;3.712;2023-03-12T08:46:01;10.2;90
74458;SHT31;62896;51.032;3.712;2023-03-12T08:49:21;10.2;90
74458;SHT31;62896;51.032;3.712;2023-03-12T08:52:41;10.3;90
74458;SHT31;62896;51.032;3.712;2023-03-12T08:56:01;10.3;90
74458;SHT31;62896;51.032;3.712;2023-03-12T08:59:21;10.3;90
74458;SHT31;62896;51.032;3.712;2023-03-12T09:02:42;10.5;89
74458;SHT31;62896;51.032;3.712;2023-03-12T09:06:01;10.5;89
74458;SHT31;62896;51.032;3.712;2023-03-12T09:09:21;10.5;89
74458;SHT31;62896;51.032;3.712;2023-03-12T09:12:41;10.7;88
74458;SHT31;62896;51.032;3.712;2023-03-12T09:16:01;10.7;88
74458;SHT31;62896;51.032;3.712;2023-03-12T09:19:21;10.7;88
74458;SHT31;62896;51.032;3.712;2023-03-12T09:22:41;10.9;87
74458;SHT31;62896;51.032;3.712;2023-03-12T09:26:01;10.9;87
74458;SHT31;62896;51.032;3.712;2023-03-12T09:29:21;10.9;87
74458;SHT31;62896;51.032;3.712;2023-03-12T09:32:41;11.2;86
74458;SHT31;62896;51.032;3.712;2023-03-12T09:36:01;11.2;86
74458;SHT31;62896;51.032;3.712;2023-03-12T09:39:21;11.2;86
74458;SHT31;62896;51.032;3.712;2023-03-12T09:42:42;11.3;84
74458;SHT31;62896;51.032;3.712;2023-03-12T09:46:01;11.3;84
74458;SHT31;62896;51.032;3.712;2023-03-12T09:49:21;11.3;84
74458;SHT31;62896;51.032;3.712;2023-03-12T09:52:42;11.4;83
74458;SHT31;62896;51.032;3.712;2023-03-12T09:56:01;11.4;83
74458;SHT31;62896;51.032;3.712;2023-03-12T09:59:21;11.4;83
74458;SHT31;62896;51.032;3.712;2023-03-12T10:02:45;11.8;81
74458;SHT31;62896;51.032;3.712;2023-03-12T10:06:04;11.8;81
74458;SHT31;62896;51.032;3.712;2023-03-12T10:09:25;11.8;81
74458;SHT31;62896;51.032;3.712;2023-03-12T10:12:44;11.9;79
74458;SHT31;62896;51.032;3.712;2023-03-12T10:16:04;11.9;79
74458;SHT31;62896;51.032;3.712;2023-03-12T10:19:29;11.9;79
74458;SHT31;62896;51.032;3.712;2023-03-12T10:22:45;12.1;77
74458;SHT31;62896;51.032;3.712;2023-03-12T10:26:02;12.1;77
74458;SHT31;62896;51.032;3.712;2023-03-12T10:29:21;12.1;77
74458;SHT31;62896;51.032;3.712;2023-03-12T10:32:42;12.5;76
74458;SHT31;62896;51.032;3.712;2023-03-12T10:36:01;12.5;76
74458;SHT31;62896;51.032;3.712;2023-03-12T10:39:21;12.5;76
74458;SHT31;62896;51.032;3.712;2023-03-12T10:42:41;12.7;76
74458;SHT31;62896;51.032;3.712;2023-03-12T10:46:03;12.7;76
74458;SHT31;62896;51.032;3.712;2023-03-12T10:49:23;12.7;76
74458;SHT31;62896;51.032;3.712;2023-03-12T10:52:41;12.8;75
74458;SHT31;62896;51.032;3.712;2023-03-12T10:56:02;12.8;75
74458;SHT31;62896;51.032;3.712;2023-03-12T10:59:21;12.8;75
74458;SHT31;62896;51.032;3.712;2023-03-12T11:02:42;13.1;73
74458;SHT31;62896;51.032;3.712;2023-03-12T11:06:01;13.1;73
74458;SHT31;62896;51.032;3.712;2023-03-12T11:09:21;13.1;73
74458;SHT31;62896;51.032;3.712;2023-03-12T11:12:49;13;74
74458;SHT31;62896;51.032;3.712;2023-03-12T11:16:01;13;74
74458;SHT31;62896;51.032;3.712;2023-03-12T11:19:29;13;74
74458;SHT31;62896;51.032;3.712;2023-03-12T11:22:41;12.9;74
74458;SHT31;62896;51.032;3.712;2023-03-12T11:26:02;12.9;74
74458;SHT31;62896;51.032;3.712;2023-03-12T11:29:24;12.9;74
74458;SHT31;62896;51.032;3.712;2023-03-12T11:32:41;12.6;74
74458;SHT31;62896;51.032;3.712;2023-03-12T11:36:04;12.6;74
74458;SHT31;62896;51.032;3.712;2023-03-12T11:39:23;12.6;74
74458;SHT31;62896;51.032;3.712;2023-03-12T11:42:45;12.6;75
74458;SHT31;62896;51.032;3.712;2023-03-12T11:46:06;12.6;75
74458;SHT31;62896;51.032;3.712;2023-03-12T11:49:25;12.6;75
74458;SHT31;62896;51.032;3.712;2023-03-12T11:52:44;13.5;72
74458;SHT31;62896;51.032;3.712;2023-03-12T11:56:04;13.5;72
74458;SHT31;62896;51.032;3.712;2023-03-12T11:59:25;13.5;72
74458;SHT31;62896;51.032;3.712;2023-03-12T12:02:46;13.8;69
74458;SHT31;62896;51.032;3.712;2023-03-12T12:06:01;13.8;69
74458;SHT31;62896;51.032;3.712;2023-03-12T12:09:23;13.8;69
74458;SHT31;62896;51.032;3.712;2023-03-12T12:12:44;13.5;69
74458;SHT31;62896;51.032;3.712;2023-03-12T12:16:04;13.5;69
74458;SHT31;62896;51.032;3.712;2023-03-12T12:19:23;13.5;69
74458;SHT31;62896;51.032;3.712;2023-03-12T12:22:43;13.2;69
74458;SHT31;62896;51.032;3.712;2023-03-12T12:26:03;13.2;69
74458;SHT31;62896;51.032;3.712;2023-03-12T12:29:23;13.2;69
74458;SHT31;62896;51.032;3.712;2023-03-12T12:32:47;13.2;68
74458;SHT31;62896;51.032;3.712;2023-03-12T12:36:01;13.2;68
74458;SHT31;62896;51.032;3.712;2023-03-12T12:39:23;13.2;68
74458;SHT31;62896;51.032;3.712;2023-03-12T12:42:46;13.4;67
74458;SHT31;62896;51.032;3.712;2023-03-12T12:46:01;13.4;67
74458;SHT31;62896;51.032;3.712;2023-03-12T12:49:21;13.4;67
74458;SHT31;62896;51.032;3.712;2023-03-12T12:52:41;13.5;67
74458;SHT31;62896;51.032;3.712;2023-03-12T12:56:02;13.5;67
74458;SHT31;62896;51.032;3.712;2023-03-12T12:59:24;13.5;67
74458;SHT31;62896;51.032;3.712;2023-03-12T13:02:41;13.5;67
74458;SHT31;62896;51.032;3.712;2023-03-12T13:06:01;13.5;67
74458;SHT31;62896;51.032;3.712;2023-03-12T13:09:22;13.5;67
74458;SHT31;62896;51.032;3.712;2023-03-12T13:12:41;13.7;66
74458;SHT31;62896;51.032;3.712;2023-03-12T13:16:18;13.7;66
74458;SHT31;62896;51.032;3.712;2023-03-12T13:19:23;13.7;66
74458;SHT31;62896;51.032;3.712;2023-03-12T13:22:53;13.7;65
74458;SHT31;62896;51.032;3.712;2023-03-12T13:26:02;13.7;65
74458;SHT31;62896;51.032;3.712;2023-03-12T13:29:22;13.7;65
74458;SHT31;62896;51.032;3.712;2023-03-12T13:33:14;13.5;65
74458;SHT31;62896;51.032;3.712;2023-03-12T13:36:04;13.5;65
74458;SHT31;62896;51.032;3.712;2023-03-12T13:39:27;13.5;65
74458;SHT31;62896;51.032;3.712;2023-03-12T13:42:41;13.2;67
74458;SHT31;62896;51.032;3.712;2023-03-12T13:46:04;13.2;67
74458;SHT31;62896;51.032;3.712;2023-03-12T13:49:21;13.2;67
74458;SHT31;62896;51.032;3.712;2023-03-12T13:52:44;13.1;69
74458;SHT31;62896;51.032;3.712;2023-03-12T13:56:02;13.1;69
74458;SHT31;62896;51.032;3.712;2023-03-12T13:59:21;13.1;69
74458;SHT31;62896;51.032;3.712;2023-03-12T14:02:42;13;70
74458;SHT31;62896;51.032;3.712;2023-03-12T14:06:06;13;70
74458;SHT31;62896;51.032;3.712;2023-03-12T14:09:22;13;70
74458;SHT31;62896;51.032;3.712;2023-03-12T14:12:42;13.7;67
74458;SHT31;62896;51.032;3.712;2023-03-12T14:16:02;13.7;67
74458;SHT31;62896;51.032;3.712;2023-03-12T14:19:22;13.7;67
74458;SHT31;62896;51.032;3.712;2023-03-12T14:22:42;14;65
74458;SHT31;62896;51.032;3.712;2023-03-12T14:26:02;14;65
74458;SHT31;62896;51.032;3.712;2023-03-12T14:29:24;14;65
74458;SHT31;62896;51.032;3.712;2023-03-12T14:32:41;13.1;68
74458;SHT31;62896;51.032;3.712;2023-03-12T14:36:02;13.1;68
74458;SHT31;62896;51.032;3.712;2023-03-12T14:39:24;13.1;68
74458;SHT31;62896;51.032;3.712;2023-03-12T14:42:41;12.8;70
74458;SHT31;62896;51.032;3.712;2023-03-12T14:46:02;12.8;70
74458;SHT31;62896;51.032;3.712;2023-03-12T14:49:21;12.8;70
74458;SHT31;62896;51.032;3.712;2023-03-12T14:52:41;12.7;70
74458;SHT31;62896;51.032;3.712;2023-03-12T14:56:02;12.7;70
74458;SHT31;62896;51.032;3.712;2023-03-12T14:59:22;12.7;70
74458;SHT31;62896;51.032;3.712;2023-03-12T15:02:41;12.7;71
74458;SHT31;62896;51.032;3.712;2023-03-12T15:06:01;12.7;71
74458;SHT31;62896;51.032;3.712;2023-03-12T15:09:22;12.7;71
74458;SHT31;62896;51.032;3.712;2023-03-12T15:12:42;12.6;71
74458;SHT31;62896;51.032;3.712;2023-03-12T15:16:01;12.6;71
74458;SHT31;62896;51.032;3.712;2023-03-12T15:19:22;12.6;71
74458;SHT31;62896;51.032;3.712;2023-03-12T15:22:41;12.5;72
74458;SHT31;62896;51.032;3.712;2023-03-12T15:26:09;12.5;72
74458;SHT31;62896;51.032;3.712;2023-03-12T15:29:22;12.5;72
74458;SHT31;62896;51.032;3.712;2023-03-12T15:32:41;12.5;73
74458;SHT31;62896;51.032;3.712;2023-03-12T15:36:02;12.5;73
74458;SHT31;62896;51.032;3.712;2023-03-12T15:39:22;12.5;73
74458;SHT31;62896;51.032;3.712;2023-03-12T15:42:41;12.4;74
74458;SHT31;62896;51.032;3.712;2023-03-12T15:46:01;12.4;74
74458;SHT31;62896;51.032;3.712;2023-03-12T15:49:22;12.4;74
74458;SHT31;62896;51.032;3.712;2023-03-12T15:52:41;12.1;74
74458;SHT31;62896;51.032;3.712;2023-03-12T15:56:02;12.1;74
74458;SHT31;62896;51.032;3.712;2023-03-12T15:59:22;12.1;74
74458;SHT31;62896;51.032;3.712;2023-03-12T16:02:45;12;75
74458;SHT31;62896;51.032;3.712;2023-03-12T16:06:01;12;75
74458;SHT31;62896;51.032;3.712;2023-03-12T16:09:21;12;75
74458;SHT31;62896;51.032;3.712;2023-03-12T16:12:41;11.9;75
74458;SHT31;62896;51.032;3.712;2023-03-12T16:16:01;11.9;75
74458;SHT31;62896;51.032;3.712;2023-03-12T16:19:21;11.9;75
74458;SHT31;62896;51.032;3.712;2023-03-12T16:22:41;11.9;75
74458;SHT31;62896;51.032;3.712;2023-03-12T16:26:01;11.9;75
74458;SHT31;62896;51.032;3.712;2023-03-12T16:29:21;11.9;75
74458;SHT31;62896;51.032;3.712;2023-03-12T16:32:41;11.8;76
74458;SHT31;62896;51.032;3.712;2023-03-12T16:36:01;11.8;76
74458;SHT31;62896;51.032;3.712;2023-03-12T16:39:21;11.8;76
74458;SHT31;62896;51.032;3.712;2023-03-12T16:42:41;11.8;76
74458;SHT31;62896;51.032;3.712;2023-03-12T16:46:01;11.8;76
74458;SHT31;62896;51.032;3.712;2023-03-12T16:49:21;11.8;76
74458;SHT31;62896;51.032;3.712;2023-03-12T16:52:41;11.7;77
74458;SHT31;62896;51.032;3.712;2023-03-12T16:56:01;11.7;77
74458;SHT31;62896;51.032;3.712;2023-03-12T16:59:22;11.7;77
74458;SHT31;62896;51.032;3.712;2023-03-12T17:02:41;11.6;77
74458;SHT31;62896;51.032;3.712;2023-03-12T17:06:01;11.6;77
74458;SHT31;62896;51.032;3.712;2023-03-12T17:09:21;11.6;77
74458;SHT31;62896;51.032;3.712;2023-03-12T17:12:41;11.5;77
74458;SHT31;62896;51.032;3.712;2023-03-12T17:16:01;11.5;77
74458;SHT31;62896;51.032;3.712;2023-03-12T17:19:21;11.5;77
74458;SHT31;62896;51.032;3.712;2023-03-12T17:22:41;11.4;78
74458;SHT31;62896;51.032;3.712;2023-03-12T17:26:01;11.4;78
74458;SHT31;62896;51.032;3.712;2023-03-12T17:29:21;11.4;78
74458;SHT31;62896;51.032;3.712;2023-03-12T17:32:41;11.3;78
74458;SHT31;62896;51.032;3.712;2023-03-12T17:36:02;11.3;78
74458;SHT31;62896;51.032;3.712;2023-03-12T17:39:21;11.3;78
74458;SHT31;62896;51.032;3.712;2023-03-12T17:42:41;11.2;79
74458;SHT31;62896;51.032;3.712;2023-03-12T17:46:02;11.2;79
74458;SHT31;62896;51.032;3.712;2023-03-12T17:49:21;11.2;79
74458;SHT31;62896;51.032;3.712;2023-03-12T17:52:41;11.2;80
74458;SHT31;62896;51.032;3.712;2023-03-12T17:56:01;11.2;80
74458;SHT31;62896;51.032;3.712;2023-03-12T17:59:21;11.2;80
74458;SHT31;62896;51.032;3.712;2023-03-12T18:02:41;11.1;80
74458;SHT31;62896;51.032;3.712;2023-03-12T18:06:01;11.1;80
74458;SHT31;62896;51.032;3.712;2023-03-12T18:09:21;11.1;80
74458;SHT31;62896;51.032;3.712;2023-03-12T18:12:41;11.1;81
74458;SHT31;62896;51.032;3.712;2023-03-12T18:16:01;11.1;81
74458;SHT31;62896;51.032;3.712;2023-03-12T18:19:21;11.1;81
74458;SHT31;62896;51.032;3.712;2023-03-12T18:22:41;11;81
74458;SHT31;62896;51.032;3.712;2023-03-12T18:26:01;11;81
74458;SHT31;62896;51.032;3.712;2023-03-12T18:29:21;11;81
74458;SHT31;62896;51.032;3.712;2023-03-12T18:32:41;10.9;82
74458;SHT31;62896;51.032;3.712;2023-03-12T18:36:01;10.9;82
74458;SHT31;62896;51.032;3.712;2023-03-12T18:39:21;10.9;82
74458;SHT31;62896;51.032;3.712;2023-03-12T18:42:41;10.8;83
74458;SHT31;62896;51.032;3.712;2023-03-12T18:46:01;10.8;83
74458;SHT31;62896;51.032;3.712;2023-03-12T18:49:21;10.8;83
74458;SHT31;62896;51.032;3.712;2023-03-12T18:52:41;10.7;83
74458;SHT31;62896;51.032;3.712;2023-03-12T18:56:01;10.7;83
74458;SHT31;62896;51.032;3.712;2023-03-12T18:59:21;10.7;83
74458;SHT31;62896;51.032;3.712;2023-03-12T19:02:41;10.7;84
74458;SHT31;62896;51.032;3.712;2023-03-12T19:06:02;10.7;84
74458;SHT31;62896;51.032;3.712;2023-03-12T19:09:21;10.7;84
74458;SHT31;62896;51.032;3.712;2023-03-12T19:12:41;10.6;84
74458;SHT31;62896;51.032;3.712;2023-03-12T19:16:02;10.6;84
74458;SHT31;62896;51.032;3.712;2023-03-12T19:19:21;10.6;84
74458;SHT31;62896;51.032;3.712;2023-03-12T19:22:41;10.6;85
74458;SHT31;62896;51.032;3.712;2023-03-12T19:26:01;10.6;85
74458;SHT31;62896;51.032;3.712;2023-03-12T19:29:21;10.6;85
74458;SHT31;62896;51.032;3.712;2023-03-12T19:32:41;10.5;85
74458;SHT31;62896;51.032;3.712;2023-03-12T19:36:01;10.5;85
74458;SHT31;62896;51.032;3.712;2023-03-12T19:39:21;10.5;85
74458;SHT31;62896;51.032;3.712;2023-03-12T19:42:41;10.6;85
74458;SHT31;62896;51.032;3.712;2023-03-12T19:46:01;10.6;85
74458;SHT31;62896;51.032;3.712;2023-03-12T19:49:21;10.6;85
74458;SHT31;62896;51.032;3.712;2023-03-12T19:52:41;10.7;84
74458;SHT31;62896;51.032;3.712;2023-03-12T19:56:01;10.7;84
74458;SHT31;62896;51.032;3.712;2023-03-12T19:59:21;10.7;84
74458;SHT31;62896;51.032;3.712;2023-03-12T20:02:41;11;82
74458;SHT31;62896;51.032;3.712;2023-03-12T20:06:01;11;82
74458;SHT31;62896;51.032;3.712;2023-03-12T20:09:21;11;82
74458;SHT31;62896;51.032;3.712;2023-03-12T20:12:41;11.2;81
74458;SHT31;62896;51.032;3.712;2023-03-12T20:16:01;11.2;81
74458;SHT31;62896;51.032;3.712;2023-03-12T20:19:21;11.2;81
74458;SHT31;62896;51.032;3.712;2023-03-12T20:22:41;11.4;81
74458;SHT31;62896;51.032;3.712;2023-03-12T20:26:01;11.4;81
74458;SHT31;62896;51.032;3.712;2023-03-12T20:29:21;11.4;81
74458;SHT31;62896;51.032;3.712;2023-03-12T20:32:41;11.5;81
74458;SHT31;62896;51.032;3.712;2023-03-12T20:36:03;11.5;81
74458;SHT31;62896;51.032;3.712;2023-03-12T20:39:21;11.5;81
74458;SHT31;62896;51.032;3.712;2023-03-12T20:42:41;11.5;82
74458;SHT31;62896;51.032;3.712;2023-03-12T20:46:01;11.5;82
74458;SHT31;62896;51.032;3.712;2023-03-12T20:49:21;11.5;82
74458;SHT31;62896;51.032;3.712;2023-03-12T20:52:41;11.5;81
74458;SHT31;62896;51.032;3.712;2023-03-12T20:56:01;11.5;81
74458;SHT31;62896;51.032;3.712;2023-03-12T20:59:21;11.5;81
74458;SHT31;62896;51.032;3.712;2023-03-12T21:02:41;11.5;81
74458;SHT31;62896;51.032;3.712;2023-03-12T21:06:01;11.5;81
74458;SHT31;62896;51.032;3.712;2023-03-12T21:09:21;11.5;81
74458;SHT31;62896;51.032;3.712;2023-03-12T21:12:41;11.5;80
74458;SHT31;62896;51.032;3.712;2023-03-12T21:16:03;11.5;80
74458;SHT31;62896;51.032;3.712;2023-03-12T21:19:21;11.5;80
74458;SHT31;62896;51.032;3.712;2023-03-12T21:22:41;11.5;80
74458;SHT31;62896;51.032;3.712;2023-03-12T21:26:02;11.5;80
74458;SHT31;62896;51.032;3.712;2023-03-12T21:29:21;11.5;80
74458;SHT31;62896;51.032;3.712;2023-03-12T21:32:41;11.5;80
74458;SHT31;62896;51.032;3.712;2023-03-12T21:36:02;11.5;80
74458;SHT31;62896;51.032;3.712;2023-03-12T21:39:21;11.5;80
74458;SHT31;62896;51.032;3.712;2023-03-12T21:42:41;11.4;82
74458;SHT31;62896;51.032;3.712;2023-03-12T21:46:02;11.4;82
74458;SHT31;62896;51.032;3.712;2023-03-12T21:49:21;11.4;82
74458;SHT31;62896;51.032;3.712;2023-03-12T21:52:41;11.4;82
74458;SHT31;62896;51.032;3.712;2023-03-12T21:56:01;11.4;82
74458;SHT31;62896;51.032;3.712;2023-03-12T21:59:21;11.4;82
74458;SHT31;62896;51.032;3.712;2023-03-12T22:02:42;11.2;86
74458;SHT31;62896;51.032;3.712;2023-03-12T22:06:01;11.2;86
74458;SHT31;62896;51.032;3.712;2023-03-12T22:09:21;11.2;86
74458;SHT31;62896;51.032;3.712;2023-03-12T22:12:41;10.9;89
74458;SHT31;62896;51.032;3.712;2023-03-12T22:16:03;10.9;89
74458;SHT31;62896;51.032;3.712;2023-03-12T22:19:21;10.9;89
74458;SHT31;62896;51.032;3.712;2023-03-12T22:22:42;10.8;90
74458;SHT31;62896;51.032;3.712;2023-03-12T22:26:01;10.8;90
74458;SHT31;62896;51.032;3.712;2023-03-12T22:29:21;10.8;90
74458;SHT31;62896;51.032;3.712;2023-03-12T22:32:41;10.7;91
74458;SHT31;62896;51.032;3.712;2023-03-12T22:36:03;10.7;91
74458;SHT31;62896;51.032;3.712;2023-03-12T22:39:21;10.7;91
74458;SHT31;62896;51.032;3.712;2023-03-12T22:42:44;10.7;91